sensor_id;sensor_type;location;lat;lon;timestamp;pressure;altitude;pressure_sealevel;temperature;humidity
59487;BME280;45298;54.918;73.504;2024-03-25T00:00:01;99488.31;;;-0.65;88.48
59487;BME280;45298;54.918;73.504;2024-03-25T00:02:38;99490.00;;;-0.62;88.72
59487;BME280;45298;54.918;73.504;2024-03-25T00:05:07;99496.03;;;-0.62;88.57
59487;BME280;45298;54.918;73.504;2024-03-25T00:07:39;99491.84;;;-0.67;88.81
59487;BME280;45298;54.918;73.504;2024-03-25T00:10:19;99502.19;;;-0.64;89.66
59487;BME280;45298;54.918;73.504;2024-03-25T00:12:48;99526.38;;;-0.59;89.36
59487;BME280;45298;54.918;73.504;2024-03-25T00:15:20;99529.75;;;-0.55;89.44
59487;BME280;45298;54.918;73.504;2024-03-25T00:17:49;99512.53;;;-0.61;89.38
59487;BME280;45298;54.918;73.504;2024-03-25T00:20:19;99510.84;;;-0.62;89.01
59487;BME280;45298;54.918;73.504;2024-03-25T00:22:47;99528.06;;;-0.58;89.09
59487;BME280;45298;54.918;73.504;2024-03-25T00:25:27;99528.94;;;-0.57;89.12
59487;BME280;45298;54.918;73.504;2024-03-25T00:27:55;99528.06;;;-0.56;89.08
59487;BME280;45298;54.918;73.504;2024-03-25T00:30:24;99534.84;;;-0.51;89.28
59487;BME280;45298;54.918;73.504;2024-03-25T00:32:52;99534.00;;;-0.51;89.48
59487;BME280;45298;54.918;73.504;2024-03-25T00:35:20;99522.72;;;-0.52;89.57
59487;BME280;45298;54.918;73.504;2024-03-25T00:37:48;99539.22;;;-0.51;89.51
59487;BME280;45298;54.918;73.504;2024-03-25T00:40:17;99521.88;;;-0.52;89.29
59487;BME280;45298;54.918;73.504;2024-03-25T00:42:44;99483.47;;;-0.80;89.55
59487;BME280;45298;54.918;73.504;2024-03-25T00:45:16;99540.00;;;-0.48;89.38
59487;BME280;45298;54.918;73.504;2024-03-25T00:47:45;99525.31;;;-0.50;89.77
59487;BME280;45298;54.918;73.504;2024-03-25T00:50:12;99538.34;;;-0.50;90.05
59487;BME280;45298;54.918;73.504;2024-03-25T00:52:42;99540.06;;;-0.51;89.66
59487;BME280;45298;54.918;73.504;2024-03-25T00:55:12;99509.13;;;-0.65;90.03
59487;BME280;45298;54.918;73.504;2024-03-25T00:57:42;99549.47;;;-0.45;89.42
59487;BME280;45298;54.918;73.504;2024-03-25T01:00:11;99546.88;;;-0.45;90.54
59487;BME280;45298;54.918;73.504;2024-03-25T01:02:39;99551.25;;;-0.47;89.89
59487;BME280;45298;54.918;73.504;2024-03-25T01:05:08;99530.78;;;-0.61;89.74
59487;BME280;45298;54.918;73.504;2024-03-25T01:07:36;99562.50;;;-0.45;89.59
59487;BME280;45298;54.918;73.504;2024-03-25T01:10:05;99555.50;;;-0.43;89.75
59487;BME280;45298;54.918;73.504;2024-03-25T01:12:34;99565.97;;;-0.44;89.85
59487;BME280;45298;54.918;73.504;2024-03-25T01:15:29;99541.09;;;-0.58;89.98
59487;BME280;45298;54.918;73.504;2024-03-25T01:17:57;99579.63;;;-0.35;90.31
59487;BME280;45298;54.918;73.504;2024-03-25T01:20:25;99573.69;;;-0.40;89.94
59487;BME280;45298;54.918;73.504;2024-03-25T01:22:53;99574.44;;;-0.36;90.01
59487;BME280;45298;54.918;73.504;2024-03-25T01:25:22;99574.38;;;-0.33;90.47
59487;BME280;45298;54.918;73.504;2024-03-25T01:27:51;99583.78;;;-0.27;89.75
59487;BME280;45298;54.918;73.504;2024-03-25T01:30:19;99571.75;;;-0.33;90.16
59487;BME280;45298;54.918;73.504;2024-03-25T01:32:47;99585.34;;;-0.20;89.90
59487;BME280;45298;54.918;73.504;2024-03-25T01:35:16;99596.56;;;-0.17;89.90
59487;BME280;45298;54.918;73.504;2024-03-25T01:37:44;99595.63;;;-0.14;90.04
59487;BME280;45298;54.918;73.504;2024-03-25T01:40:12;99594.75;;;-0.14;89.75
59487;BME280;45298;54.918;73.504;2024-03-25T01:42:40;99603.41;;;-0.12;89.84
59487;BME280;45298;54.918;73.504;2024-03-25T01:45:08;99600.78;;;-0.11;90.00
59487;BME280;45298;54.918;73.504;2024-03-25T01:47:37;99605.72;;;0.00;89.73
59487;BME280;45298;54.918;73.504;2024-03-25T01:50:07;99604.78;;;0.01;89.52
59487;BME280;45298;54.918;73.504;2024-03-25T01:52:35;99610.81;;;0.05;89.78
59487;BME280;45298;54.918;73.504;2024-03-25T01:55:03;99612.44;;;0.09;89.82
59487;BME280;45298;54.918;73.504;2024-03-25T01:57:32;99616.72;;;0.10;89.62
59487;BME280;45298;54.918;73.504;2024-03-25T02:00:08;99626.19;;;0.16;89.64
59487;BME280;45298;54.918;73.504;2024-03-25T02:02:46;99624.47;;;0.14;90.05
59487;BME280;45298;54.918;73.504;2024-03-25T02:05:16;99616.59;;;0.16;89.62
59487;BME280;45298;54.918;73.504;2024-03-25T02:07:45;99639.00;;;0.23;89.94
59487;BME280;45298;54.918;73.504;2024-03-25T02:10:14;99639.75;;;0.28;89.75
59487;BME280;45298;54.918;73.504;2024-03-25T02:12:42;99636.22;;;0.29;89.54
59487;BME280;45298;54.918;73.504;2024-03-25T02:15:12;99650.91;;;0.34;89.47
59487;BME280;45298;54.918;73.504;2024-03-25T02:17:43;99656.94;;;0.36;89.44
59487;BME280;45298;54.918;73.504;2024-03-25T02:20:14;99652.53;;;0.38;89.31
59487;BME280;45298;54.918;73.504;2024-03-25T02:22:43;99654.34;;;0.36;89.82
59487;BME280;45298;54.918;73.504;2024-03-25T02:25:11;99653.28;;;0.43;89.46
59487;BME280;45298;54.918;73.504;2024-03-25T02:27:40;99649.94;;;0.38;89.24
59487;BME280;45298;54.918;73.504;2024-03-25T02:30:11;99674.94;;;0.47;89.39
59487;BME280;45298;54.918;73.504;2024-03-25T02:32:41;99664.63;;;0.42;89.64
59487;BME280;45298;54.918;73.504;2024-03-25T02:35:19;99671.47;;;0.46;88.91
59487;BME280;45298;54.918;73.504;2024-03-25T02:37:50;99687.75;;;0.54;89.13
59487;BME280;45298;54.918;73.504;2024-03-25T02:40:20;99684.25;;;0.55;89.24
59487;BME280;45298;54.918;73.504;2024-03-25T02:42:50;99692.97;;;0.56;88.92
59487;BME280;45298;54.918;73.504;2024-03-25T02:45:18;99691.34;;;0.50;89.49
59487;BME280;45298;54.918;73.504;2024-03-25T02:47:46;99693.06;;;0.51;89.60
59487;BME280;45298;54.918;73.504;2024-03-25T02:50:16;99691.34;;;0.50;89.36
59487;BME280;45298;54.918;73.504;2024-03-25T02:52:53;99713.78;;;0.57;89.41
59487;BME280;45298;54.918;73.504;2024-03-25T02:55:21;99698.28;;;0.51;89.49
59487;BME280;45298;54.918;73.504;2024-03-25T02:57:48;99700.06;;;0.49;89.46
59487;BME280;45298;54.918;73.504;2024-03-25T03:00:16;99706.94;;;0.53;89.26
59487;BME280;45298;54.918;73.504;2024-03-25T03:02:44;99709.47;;;0.56;89.38
59487;BME280;45298;54.918;73.504;2024-03-25T03:05:14;99711.19;;;0.57;89.19
59487;BME280;45298;54.918;73.504;2024-03-25T03:07:42;99710.34;;;0.57;89.26
59487;BME280;45298;54.918;73.504;2024-03-25T03:10:10;99691.53;;;0.44;89.34
59487;BME280;45298;54.918;73.504;2024-03-25T03:12:48;99711.09;;;0.60;89.06
59487;BME280;45298;54.918;73.504;2024-03-25T03:15:16;99741.28;;;0.71;89.60
59487;BME280;45298;54.918;73.504;2024-03-25T03:17:44;99730.81;;;0.72;88.91
59487;BME280;45298;54.918;73.504;2024-03-25T03:20:14;99725.72;;;0.68;88.73
59487;BME280;45298;54.918;73.504;2024-03-25T03:22:55;99729.00;;;0.74;88.71
59487;BME280;45298;54.918;73.504;2024-03-25T03:25:24;99740.09;;;0.83;88.48
59487;BME280;45298;54.918;73.504;2024-03-25T03:27:52;99740.97;;;0.83;88.42
59487;BME280;45298;54.918;73.504;2024-03-25T03:30:19;99746.06;;;0.88;88.49
59487;BME280;45298;54.918;73.504;2024-03-25T03:32:47;99752.03;;;0.92;88.43
59487;BME280;45298;54.918;73.504;2024-03-25T03:35:15;99755.53;;;0.92;88.47
59487;BME280;45298;54.918;73.504;2024-03-25T03:37:44;99757.19;;;0.95;88.32
59487;BME280;45298;54.918;73.504;2024-03-25T03:40:12;99768.38;;;1.00;88.36
59487;BME280;45298;54.918;73.504;2024-03-25T03:42:40;99773.59;;;1.00;88.27
59487;BME280;45298;54.918;73.504;2024-03-25T03:45:07;99782.06;;;1.08;88.31
59487;BME280;45298;54.918;73.504;2024-03-25T03:47:36;99778.56;;;1.09;88.18
59487;BME280;45298;54.918;73.504;2024-03-25T03:50:05;99782.84;;;1.12;88.12
59487;BME280;45298;54.918;73.504;2024-03-25T03:52:33;99796.59;;;1.18;88.05
59487;BME280;45298;54.918;73.504;2024-03-25T03:55:01;99793.13;;;1.18;87.92
59487;BME280;45298;54.918;73.504;2024-03-25T03:57:31;99806.09;;;1.21;87.91
59487;BME280;45298;54.918;73.504;2024-03-25T03:59:59;99783.78;;;1.09;87.55
59487;BME280;45298;54.918;73.504;2024-03-25T04:02:28;99815.50;;;1.28;87.81
59487;BME280;45298;54.918;73.504;2024-03-25T04:04:56;99827.50;;;1.35;87.10
59487;BME280;45298;54.918;73.504;2024-03-25T04:07:24;99816.25;;;1.32;87.34
59487;BME280;45298;54.918;73.504;2024-03-25T04:09:54;99817.13;;;1.32;87.51
59487;BME280;45298;54.918;73.504;2024-03-25T04:12:22;99821.25;;;1.41;87.14
59487;BME280;45298;54.918;73.504;2024-03-25T04:14:51;99799.69;;;1.33;87.12
59487;BME280;45298;54.918;73.504;2024-03-25T04:17:35;99829.38;;;1.62;86.83
59487;BME280;45298;54.918;73.504;2024-03-25T04:20:04;99828.25;;;1.71;86.81
59487;BME280;45298;54.918;73.504;2024-03-25T04:22:42;99820.09;;;1.81;86.49
59487;BME280;45298;54.918;73.504;2024-03-25T04:25:12;99840.72;;;1.91;86.37
59487;BME280;45298;54.918;73.504;2024-03-25T04:27:44;99824.28;;;1.87;86.13
59487;BME280;45298;54.918;73.504;2024-03-25T04:30:12;99839.66;;;1.98;86.14
59487;BME280;45298;54.918;73.504;2024-03-25T04:32:41;99830.25;;;1.92;86.10
59487;BME280;45298;54.918;73.504;2024-03-25T04:35:09;99844.66;;;2.06;85.90
59487;BME280;45298;54.918;73.504;2024-03-25T04:37:51;99842.53;;;2.19;85.34
59487;BME280;45298;54.918;73.504;2024-03-25T04:40:19;99843.53;;;2.15;85.52
59487;BME280;45298;54.918;73.504;2024-03-25T04:42:47;99847.03;;;2.14;85.32
59487;BME280;45298;54.918;73.504;2024-03-25T04:45:16;99856.50;;;2.18;85.13
59487;BME280;45298;54.918;73.504;2024-03-25T04:47:44;99855.63;;;2.19;85.46
59487;BME280;45298;54.918;73.504;2024-03-25T04:50:13;99846.88;;;2.20;85.07
59487;BME280;45298;54.918;73.504;2024-03-25T04:52:41;99857.41;;;2.17;84.92
59487;BME280;45298;54.918;73.504;2024-03-25T04:55:10;99873.97;;;2.17;84.73
59487;BME280;45298;54.918;73.504;2024-03-25T04:57:40;99870.44;;;2.18;84.72
59487;BME280;45298;54.918;73.504;2024-03-25T05:00:11;99870.50;;;2.17;84.78
59487;BME280;45298;54.918;73.504;2024-03-25T05:02:42;99879.00;;;2.23;84.86
59487;BME280;45298;54.918;73.504;2024-03-25T05:05:10;99878.25;;;2.20;84.59
59487;BME280;45298;54.918;73.504;2024-03-25T05:07:39;99878.25;;;2.20;84.88
59487;BME280;45298;54.918;73.504;2024-03-25T05:10:07;99880.16;;;2.15;84.98
59487;BME280;45298;54.918;73.504;2024-03-25T05:12:35;99888.75;;;2.18;84.46
59487;BME280;45298;54.918;73.504;2024-03-25T05:15:04;99894.09;;;2.15;84.57
59487;BME280;45298;54.918;73.504;2024-03-25T05:17:35;99908.03;;;2.16;84.56
59487;BME280;45298;54.918;73.504;2024-03-25T05:20:05;99901.25;;;2.08;84.46
59487;BME280;45298;54.918;73.504;2024-03-25T05:22:33;99908.50;;;2.00;84.29
59487;BME280;45298;54.918;73.504;2024-03-25T05:25:04;99916.28;;;2.02;84.29
59487;BME280;45298;54.918;73.504;2024-03-25T05:27:32;99912.63;;;2.07;84.62
59487;BME280;45298;54.918;73.504;2024-03-25T05:30:00;99932.41;;;2.18;84.46
59487;BME280;45298;54.918;73.504;2024-03-25T05:32:30;99920.22;;;2.17;84.21
59487;BME280;45298;54.918;73.504;2024-03-25T05:35:10;99920.22;;;2.17;84.00
59487;BME280;45298;54.918;73.504;2024-03-25T05:37:38;99928.97;;;2.16;84.09
59487;BME280;45298;54.918;73.504;2024-03-25T05:40:07;99921.84;;;2.21;84.21
59487;BME280;45298;54.918;73.504;2024-03-25T05:42:38;99932.91;;;2.31;84.12
59487;BME280;45298;54.918;73.504;2024-03-25T05:45:06;99942.16;;;2.42;83.80
59487;BME280;45298;54.918;73.504;2024-03-25T05:47:37;99933.47;;;2.40;83.52
59487;BME280;45298;54.918;73.504;2024-03-25T05:50:06;99949.72;;;2.52;83.03
59487;BME280;45298;54.918;73.504;2024-03-25T05:52:47;99928.16;;;2.44;83.46
59487;BME280;45298;54.918;73.504;2024-03-25T05:55:17;99959.09;;;2.59;83.16
59487;BME280;45298;54.918;73.504;2024-03-25T05:57:45;99955.66;;;2.57;82.96
59487;BME280;45298;54.918;73.504;2024-03-25T06:00:13;99961.47;;;2.67;83.07
59487;BME280;45298;54.918;73.504;2024-03-25T06:02:41;99962.16;;;2.74;82.67
59487;BME280;45298;54.918;73.504;2024-03-25T06:05:09;99974.25;;;2.78;82.65
59487;BME280;45298;54.918;73.504;2024-03-25T06:07:36;99945.63;;;2.71;81.66
59487;BME280;45298;54.918;73.504;2024-03-25T06:10:04;99982.72;;;2.86;82.10
59487;BME280;45298;54.918;73.504;2024-03-25T06:12:32;99986.06;;;2.91;81.89
59487;BME280;45298;54.918;73.504;2024-03-25T06:15:01;99968.63;;;2.90;82.66
59487;BME280;45298;54.918;73.504;2024-03-25T06:17:29;99995.13;;;3.08;81.83
59487;BME280;45298;54.918;73.504;2024-03-25T06:19:57;100001.09;;;3.13;82.10
59487;BME280;45298;54.918;73.504;2024-03-25T06:22:25;99998.22;;;3.21;81.81
59487;BME280;45298;54.918;73.504;2024-03-25T06:24:53;100003.56;;;3.17;81.59
59487;BME280;45298;54.918;73.504;2024-03-25T06:27:21;99999.28;;;3.15;81.56
59487;BME280;45298;54.918;73.504;2024-03-25T06:29:49;99999.47;;;3.09;81.36
59487;BME280;45298;54.918;73.504;2024-03-25T06:32:37;100011.56;;;3.13;81.26
59487;BME280;45298;54.918;73.504;2024-03-25T06:35:23;100003.47;;;3.21;81.82
59487;BME280;45298;54.918;73.504;2024-03-25T06:37:51;100002.41;;;3.26;80.94
59487;BME280;45298;54.918;73.504;2024-03-25T06:40:19;99997.88;;;3.31;81.20
59487;BME280;45298;54.918;73.504;2024-03-25T06:42:49;100000.31;;;3.38;80.15
59487;BME280;45298;54.918;73.504;2024-03-25T06:45:18;100015.63;;;3.50;80.96
59487;BME280;45298;54.918;73.504;2024-03-25T06:47:46;100018.22;;;3.52;80.56
59487;BME280;45298;54.918;73.504;2024-03-25T06:50:14;100025.72;;;3.62;80.84
59487;BME280;45298;54.918;73.504;2024-03-25T06:52:42;100028.22;;;3.66;80.70
59487;BME280;45298;54.918;73.504;2024-03-25T06:55:10;100038.56;;;3.70;80.52
59487;BME280;45298;54.918;73.504;2024-03-25T06:57:38;100021.06;;;3.44;80.31
59487;BME280;45298;54.918;73.504;2024-03-25T07:00:06;100063.47;;;3.57;79.89
59487;BME280;45298;54.918;73.504;2024-03-25T07:02:40;100050.38;;;3.57;79.79
59487;BME280;45298;54.918;73.504;2024-03-25T07:05:08;100063.34;;;3.61;80.48
59487;BME280;45298;54.918;73.504;2024-03-25T07:07:36;100062.28;;;3.67;80.26
59487;BME280;45298;54.918;73.504;2024-03-25T07:10:05;100062.22;;;3.69;79.43
59487;BME280;45298;54.918;73.504;2024-03-25T07:12:32;100039.63;;;3.65;79.58
59487;BME280;45298;54.918;73.504;2024-03-25T07:15:01;100079.97;;;3.87;79.00
59487;BME280;45298;54.918;73.504;2024-03-25T07:17:31;100082.28;;;3.97;78.51
59487;BME280;45298;54.918;73.504;2024-03-25T07:19:59;100080.22;;;4.06;78.92
59487;BME280;45298;54.918;73.504;2024-03-25T07:22:29;100078.53;;;4.04;78.62
59487;BME280;45298;54.918;73.504;2024-03-25T07:24:57;100065.75;;;3.95;78.40
59487;BME280;45298;54.918;73.504;2024-03-25T07:27:24;100090.00;;;4.01;78.56
59487;BME280;45298;54.918;73.504;2024-03-25T07:29:52;100089.63;;;3.87;77.83
59487;BME280;45298;54.918;73.504;2024-03-25T07:32:22;100089.66;;;3.85;78.78
59487;BME280;45298;54.918;73.504;2024-03-25T07:34:50;100106.00;;;3.93;78.82
59487;BME280;45298;54.918;73.504;2024-03-25T07:37:18;100108.63;;;3.93;78.50
59487;BME280;45298;54.918;73.504;2024-03-25T07:39:46;100110.25;;;3.98;78.49
59487;BME280;45298;54.918;73.504;2024-03-25T07:42:15;100108.72;;;3.90;77.95
59487;BME280;45298;54.918;73.504;2024-03-25T07:44:44;100111.31;;;3.92;78.03
59487;BME280;45298;54.918;73.504;2024-03-25T07:47:12;100116.41;;;3.97;77.91
59487;BME280;45298;54.918;73.504;2024-03-25T07:49:39;100118.03;;;4.01;77.77
59487;BME280;45298;54.918;73.504;2024-03-25T07:52:08;100116.16;;;4.04;77.32
59487;BME280;45298;54.918;73.504;2024-03-25T07:54:36;100119.56;;;4.06;77.31
59487;BME280;45298;54.918;73.504;2024-03-25T07:57:06;100118.31;;;3.91;77.11
59487;BME280;45298;54.918;73.504;2024-03-25T07:59:35;100123.94;;;4.06;77.62
59487;BME280;45298;54.918;73.504;2024-03-25T08:02:03;100114.44;;;4.03;77.08
59487;BME280;45298;54.918;73.504;2024-03-25T08:04:31;100111.44;;;4.14;77.16
59487;BME280;45298;54.918;73.504;2024-03-25T08:06:59;100110.72;;;4.09;77.46
59487;BME280;45298;54.918;73.504;2024-03-25T08:09:27;100124.13;;;4.27;77.39
59487;BME280;45298;54.918;73.504;2024-03-25T08:11:55;100110.91;;;4.30;76.23
59487;BME280;45298;54.918;73.504;2024-03-25T08:14:23;100141.44;;;4.58;76.24
59487;BME280;45298;54.918;73.504;2024-03-25T08:16:51;100136.91;;;4.87;75.91
59487;BME280;45298;54.918;73.504;2024-03-25T08:19:19;100127.88;;;4.70;75.77
59487;BME280;45298;54.918;73.504;2024-03-25T08:21:47;100141.75;;;4.48;76.20
59487;BME280;45298;54.918;73.504;2024-03-25T08:24:16;100152.72;;;4.36;75.97
59487;BME280;45298;54.918;73.504;2024-03-25T08:26:44;100149.06;;;4.40;75.93
59487;BME280;45298;54.918;73.504;2024-03-25T08:29:12;100146.84;;;4.28;76.12
59487;BME280;45298;54.918;73.504;2024-03-25T08:31:40;100133.81;;;4.24;76.18
59487;BME280;45298;54.918;73.504;2024-03-25T08:34:08;100162.94;;;4.18;76.28
59487;BME280;45298;54.918;73.504;2024-03-25T08:36:36;100156.09;;;4.13;76.13
59487;BME280;45298;54.918;73.504;2024-03-25T08:39:04;100159.97;;;4.02;76.33
59487;BME280;45298;54.918;73.504;2024-03-25T08:41:32;100164.56;;;3.96;76.50
59487;BME280;45298;54.918;73.504;2024-03-25T08:44:00;100173.97;;;3.74;75.94
59487;BME280;45298;54.918;73.504;2024-03-25T08:46:28;100182.31;;;3.59;76.63
59487;BME280;45298;54.918;73.504;2024-03-25T08:48:56;100157.84;;;3.30;76.56
59487;BME280;45298;54.918;73.504;2024-03-25T08:51:25;100185.50;;;3.40;77.03
59487;BME280;45298;54.918;73.504;2024-03-25T08:53:53;100190.72;;;3.42;76.40
59487;BME280;45298;54.918;73.504;2024-03-25T08:56:21;100194.53;;;3.60;76.27
59487;BME280;45298;54.918;73.504;2024-03-25T08:58:48;100191.56;;;3.71;75.91
59487;BME280;45298;54.918;73.504;2024-03-25T09:01:16;100188.91;;;3.72;75.94
59487;BME280;45298;54.918;73.504;2024-03-25T09:03:44;100198.53;;;3.72;75.84
59487;BME280;45298;54.918;73.504;2024-03-25T09:06:12;100192.59;;;3.93;75.48
59487;BME280;45298;54.918;73.504;2024-03-25T09:08:40;100194.13;;;4.01;75.55
59487;BME280;45298;54.918;73.504;2024-03-25T09:11:26;100195.94;;;3.99;75.71
59487;BME280;45298;54.918;73.504;2024-03-25T09:13:54;100195.13;;;3.97;75.75
59487;BME280;45298;54.918;73.504;2024-03-25T09:16:22;100195.63;;;4.08;75.76
59487;BME280;45298;54.918;73.504;2024-03-25T09:18:51;100185.22;;;4.05;75.37
59487;BME280;45298;54.918;73.504;2024-03-25T09:21:19;100205.38;;;4.04;75.41
59487;BME280;45298;54.918;73.504;2024-03-25T09:23:47;100195.22;;;3.93;75.25
59487;BME280;45298;54.918;73.504;2024-03-25T09:26:15;100202.00;;;4.01;75.34
59487;BME280;45298;54.918;73.504;2024-03-25T09:28:43;100213.41;;;4.00;75.42
59487;BME280;45298;54.918;73.504;2024-03-25T09:31:11;100199.38;;;4.01;75.03
59487;BME280;45298;54.918;73.504;2024-03-25T09:33:40;100188.97;;;3.98;75.47
59487;BME280;45298;54.918;73.504;2024-03-25T09:36:10;100217.13;;;3.92;76.20
59487;BME280;45298;54.918;73.504;2024-03-25T09:38:38;100214.00;;;3.81;75.86
59487;BME280;45298;54.918;73.504;2024-03-25T09:41:08;100229.53;;;3.87;75.92
59487;BME280;45298;54.918;73.504;2024-03-25T09:43:48;100226.22;;;3.82;75.46
59487;BME280;45298;54.918;73.504;2024-03-25T09:46:21;100238.53;;;3.80;75.46
59487;BME280;45298;54.918;73.504;2024-03-25T09:48:52;100239.34;;;3.82;74.99
59487;BME280;45298;54.918;73.504;2024-03-25T09:51:21;100241.25;;;3.75;76.18
59487;BME280;45298;54.918;73.504;2024-03-25T09:53:50;100236.22;;;3.69;76.10
59487;BME280;45298;54.918;73.504;2024-03-25T09:56:18;100219.91;;;3.59;75.98
59487;BME280;45298;54.918;73.504;2024-03-25T09:58:47;100230.09;;;3.69;76.21
59487;BME280;45298;54.918;73.504;2024-03-25T10:01:14;100240.84;;;3.61;75.52
59487;BME280;45298;54.918;73.504;2024-03-25T10:03:43;100247.84;;;3.60;75.83
59487;BME280;45298;54.918;73.504;2024-03-25T10:06:10;100234.19;;;3.49;75.92
59487;BME280;45298;54.918;73.504;2024-03-25T10:08:39;100255.75;;;3.59;75.62
59487;BME280;45298;54.918;73.504;2024-03-25T10:11:06;100242.88;;;3.51;76.18
59487;BME280;45298;54.918;73.504;2024-03-25T10:13:34;100256.81;;;3.53;76.05
59487;BME280;45298;54.918;73.504;2024-03-25T10:16:03;100263.00;;;3.51;75.92
59487;BME280;45298;54.918;73.504;2024-03-25T10:18:31;100242.44;;;3.35;76.11
59487;BME280;45298;54.918;73.504;2024-03-25T10:21:01;100247.59;;;3.38;76.00
59487;BME280;45298;54.918;73.504;2024-03-25T10:23:34;100269.75;;;3.59;76.25
59487;BME280;45298;54.918;73.504;2024-03-25T10:26:08;100263.59;;;3.60;76.49
59487;BME280;45298;54.918;73.504;2024-03-25T10:28:36;100271.09;;;3.73;75.74
59487;BME280;45298;54.918;73.504;2024-03-25T10:31:04;100262.56;;;3.65;75.94
59487;BME280;45298;54.918;73.504;2024-03-25T10:33:33;100271.41;;;3.62;75.92
59487;BME280;45298;54.918;73.504;2024-03-25T10:36:03;100268.94;;;3.57;75.93
59487;BME280;45298;54.918;73.504;2024-03-25T10:38:32;100276.16;;;3.49;75.85
59487;BME280;45298;54.918;73.504;2024-03-25T10:41:03;100265.84;;;3.43;76.06
59487;BME280;45298;54.918;73.504;2024-03-25T10:43:45;100289.34;;;3.46;76.18
59487;BME280;45298;54.918;73.504;2024-03-25T10:46:21;100290.53;;;3.36;76.11
59487;BME280;45298;54.918;73.504;2024-03-25T10:49:11;100285.56;;;3.25;76.32
59487;BME280;45298;54.918;73.504;2024-03-25T10:51:44;100290.88;;;3.23;76.31
59487;BME280;45298;54.918;73.504;2024-03-25T10:54:25;100292.53;;;3.26;76.57
59487;BME280;45298;54.918;73.504;2024-03-25T10:56:54;100298.69;;;3.25;76.81
59487;BME280;45298;54.918;73.504;2024-03-25T10:59:23;100317.63;;;3.35;76.51
59487;BME280;45298;54.918;73.504;2024-03-25T11:01:51;100308.22;;;3.27;76.68
59487;BME280;45298;54.918;73.504;2024-03-25T11:04:20;100319.78;;;3.20;77.00
59487;BME280;45298;54.918;73.504;2024-03-25T11:06:48;100300.94;;;3.06;76.84
59487;BME280;45298;54.918;73.504;2024-03-25T11:09:23;100329.88;;;3.01;76.54
59487;BME280;45298;54.918;73.504;2024-03-25T11:11:55;100330.97;;;2.94;77.24
59487;BME280;45298;54.918;73.504;2024-03-25T11:14:26;100322.56;;;2.79;77.32
59487;BME280;45298;54.918;73.504;2024-03-25T11:16:54;100338.34;;;2.78;77.10
59487;BME280;45298;54.918;73.504;2024-03-25T11:19:26;100325.53;;;2.65;77.43
59487;BME280;45298;54.918;73.504;2024-03-25T11:22:09;100342.00;;;2.70;77.86
59487;BME280;45298;54.918;73.504;2024-03-25T11:24:43;100344.63;;;2.70;77.45
59487;BME280;45298;54.918;73.504;2024-03-25T11:27:13;100349.78;;;2.74;77.43
59487;BME280;45298;54.918;73.504;2024-03-25T11:29:42;100353.94;;;2.82;77.52
59487;BME280;45298;54.918;73.504;2024-03-25T11:32:15;100347.81;;;2.83;77.27
59487;BME280;45298;54.918;73.504;2024-03-25T11:34:52;100354.81;;;2.83;77.33
59487;BME280;45298;54.918;73.504;2024-03-25T11:37:20;100353.81;;;2.87;77.25
59487;BME280;45298;54.918;73.504;2024-03-25T11:39:48;100349.56;;;2.83;77.27
59487;BME280;45298;54.918;73.504;2024-03-25T11:42:16;100356.44;;;2.87;77.82
59487;BME280;45298;54.918;73.504;2024-03-25T11:44:44;100358.34;;;2.82;77.35
59487;BME280;45298;54.918;73.504;2024-03-25T11:47:12;100365.38;;;2.80;78.11
59487;BME280;45298;54.918;73.504;2024-03-25T11:49:40;100374.94;;;2.81;78.12
59487;BME280;45298;54.918;73.504;2024-03-25T11:52:08;100366.47;;;2.69;77.81
59487;BME280;45298;54.918;73.504;2024-03-25T11:54:36;100375.34;;;2.64;77.91
59487;BME280;45298;54.918;73.504;2024-03-25T11:57:04;100377.38;;;2.52;78.50
59487;BME280;45298;54.918;73.504;2024-03-25T11:59:32;100383.69;;;2.42;78.44
59487;BME280;45298;54.918;73.504;2024-03-25T12:02:00;100390.91;;;2.32;78.64
59487;BME280;45298;54.918;73.504;2024-03-25T12:04:29;100401.59;;;2.21;78.80
59487;BME280;45298;54.918;73.504;2024-03-25T12:06:58;100380.41;;;1.93;78.77
59487;BME280;45298;54.918;73.504;2024-03-25T12:09:27;100397.66;;;2.02;79.02
59487;BME280;45298;54.918;73.504;2024-03-25T12:12:14;100410.84;;;1.97;79.23
59487;BME280;45298;54.918;73.504;2024-03-25T12:14:42;100401.34;;;1.93;79.14
59487;BME280;45298;54.918;73.504;2024-03-25T12:17:10;100421.44;;;1.91;79.29
59487;BME280;45298;54.918;73.504;2024-03-25T12:19:38;100406.75;;;1.84;79.76
59487;BME280;45298;54.918;73.504;2024-03-25T12:22:06;100414.66;;;1.80;79.75
59487;BME280;45298;54.918;73.504;2024-03-25T12:24:35;100426.97;;;1.75;80.05
59487;BME280;45298;54.918;73.504;2024-03-25T12:27:04;100425.25;;;1.74;79.66
59487;BME280;45298;54.918;73.504;2024-03-25T12:30:19;100433.03;;;1.77;80.28
59487;BME280;45298;54.918;73.504;2024-03-25T12:32:50;100430.47;;;1.74;79.80
59487;BME280;45298;54.918;73.504;2024-03-25T12:35:19;100420.06;;;1.73;79.87
59487;BME280;45298;54.918;73.504;2024-03-25T12:37:47;100446.00;;;1.84;79.88
59487;BME280;45298;54.918;73.504;2024-03-25T12:40:28;100449.50;;;1.83;80.50
59487;BME280;45298;54.918;73.504;2024-03-25T12:42:59;100412.41;;;1.62;80.36
59487;BME280;45298;54.918;73.504;2024-03-25T12:45:33;100447.03;;;1.75;80.31
59487;BME280;45298;54.918;73.504;2024-03-25T12:48:01;100447.94;;;1.72;80.46
59487;BME280;45298;54.918;73.504;2024-03-25T12:50:29;100451.50;;;1.70;80.44
59487;BME280;45298;54.918;73.504;2024-03-25T12:52:57;100452.44;;;1.65;80.39
59487;BME280;45298;54.918;73.504;2024-03-25T12:55:27;100462.88;;;1.65;80.66
59487;BME280;45298;54.918;73.504;2024-03-25T12:57:57;100456.97;;;1.56;80.72
59487;BME280;45298;54.918;73.504;2024-03-25T13:00:26;100459.69;;;1.49;80.83
59487;BME280;45298;54.918;73.504;2024-03-25T13:02:53;100460.66;;;1.45;80.79
59487;BME280;45298;54.918;73.504;2024-03-25T13:05:21;100468.56;;;1.41;81.00